Flight Track Log - Related Links

Times and Time Zones

All times are in EDT time to prevent confusion due to time zone crossing. See the N789EX flight status page for this flight to view local times or setup timezone preferences in your user account.

Time Position Orientation Groundspeed Altitude Reporting Facility
EDT Latitude Longitude Course Direction KTS MPH feet Rate Location/Type
Thu 05:22:42 PM 47.4190 -119.8810 296° West 331 381 20,000  Level FlightAware ADS-B
Thu 05:23:00 PM 47.3671 -119.9575 296° West  Level Estimated
Thu 05:23:21 PM 47.4460 -119.9600 297° West 333 383 20,000  Level FlightAware ADS-B
Thu 05:23:51 PM 47.4670 -120.0210 297° West 331 381 20,000  Level FlightAware ADS-B
Thu 05:25:03 PM 47.5160 -120.1670 296° West 334 384 20,000  Level FlightAware ADS-B
Thu 05:25:59 PM 47.5540 -120.2800 297° West 330 380 20,000  Level FlightAware ADS-B
Thu 05:26:52 PM 47.5900 -120.3870 297° West 333 383 20,000  Level FlightAware ADS-B
Thu 05:27:08 PM 47.6010 -120.4200 296° West 333 383 20,000  Level FlightAware ADS-B
Thu 05:27:50 PM 47.6290 -120.5060 296° West 330 380 20,000  Level FlightAware ADS-B
Thu 05:28:26 PM 47.6530 -120.5780 296° West 330 380 20,000  Level FlightAware ADS-B
Thu 05:29:00 PM 47.6760 -120.6470 296° West 329 379 20,000 -125 Level FlightAware ADS-B
Thu 05:30:02 PM 47.7170 -120.7720 296° West 321 369 19,800 -455 Descending FlightAware ADS-B
Thu 05:31:12 PM 47.7610 -120.9060 296° West 296 341 19,000 -810 Descending FlightAware ADS-B
Thu 05:32:08 PM 47.7940 -121.0070 296° West 291 335 18,100 -978 Descending FlightAware ADS-B
Thu 05:32:44 PM 47.8140 -121.0690 296° West 288 331 17,500 -1,023 Descending FlightAware ADS-B
Thu 05:33:36 PM 47.8450 -121.1640 296° West 288 331 16,600 -1,050 Descending FlightAware ADS-B
Thu 05:34:04 PM 47.8600 -121.2160 293° West 287 330 16,100 -1,235 Descending FlightAware ADS-B
Thu 05:34:44 PM 47.8810 -121.2890 293° West 293 337 15,200 -1,200 Descending FlightAware ADS-B
Thu 05:35:24 PM 47.9020 -121.3650 292° West 293 337 14,500 -1,020 Descending FlightAware ADS-B
Thu 05:36:24 PM 47.9320 -121.4750 292° West 292 336 13,500 -1,011 Descending FlightAware ADS-B
Thu 05:36:53 PM 47.9470 -121.5290 293° West 292 336 13,000 -1,906 Descending FlightAware ADS-B
Thu 05:37:49 PM 47.9760 -121.6350 292° West 297 342 10,800 -1,682 Descending FlightAware ADS-B
Thu 05:38:40 PM 48.0010 -121.7270 292° West 265 305 10,000 -1,037 Descending FlightAware ADS-B
Thu 05:39:10 PM 48.0140 -121.7770 291° West 251 289 9,400 -1,853 Descending FlightAware ADS-B
Thu 05:39:48 PM 48.0310 -121.8380 293° West 257 296 7,900 -1,545 Descending FlightAware ADS-B
Thu 05:40:16 PM 48.0430 -121.8820 292° West 243 280 7,700 -250 Descending FlightAware ADS-B
Thu 05:40:36 PM 48.0510 -121.9130 291° West 232 267 7,700 -115 Level FlightAware ADS-B
Thu 05:41:08 PM 48.0630 -121.9600 291° West 223 257 7,600 -618 Descending FlightAware ADS-B
Thu 05:41:44 PM 48.0770 -122.0110 292° West 221 254 7,000 -1,029 Descending FlightAware ADS-B
Thu 05:42:18 PM 48.0890 -122.0560 292° West 204 235 6,400 -1,452 Descending FlightAware ADS-B
Thu 05:42:46 PM 48.0990 -122.0930 292° West 200 230 5,500 -1,313 Descending FlightAware ADS-B
Thu 05:43:22 PM 48.1110 -122.1360 293° West 170 196 5,000 -750 Descending FlightAware ADS-B
Thu 05:43:50 PM 48.1180 -122.1650 290° West 161 185 4,700 -682 Descending FlightAware ADS-B
Thu 05:44:06 PM 48.1230 -122.1820 294° West 158 182 4,500 -800 Descending FlightAware ADS-B
Thu 05:44:35 PM 48.1310 -122.2110 292° West 158 182 4,100 -840 Descending FlightAware ADS-B
Thu 05:44:56 PM 48.1330 -122.2330 278° West 145 167 3,800 -421 Descending FlightAware ADS-B
Thu 05:45:32 PM 48.1310 -122.2660 265° West 141 162 3,700 -400 Descending FlightAware ADS-B
Thu 05:45:56 PM 48.1210 -122.2810 225° Southwest 145 167 3,400 -1,000 Descending FlightAware ADS-B
Thu 05:46:26 PM 48.1000 -122.2900 196° South 151 174 2,800 -636 Descending FlightAware ADS-B
Thu 05:47:02 PM 48.0740 -122.2890 179° South 147 169 2,700 -118 Descending FlightAware ADS-B
Thu 05:47:17 PM 48.0650 -122.2890 180° South 146 168 2,700  Level FlightAware ADS-B
Thu 05:47:43 PM 48.0480 -122.2890 180° South 148 170 2,700 -245 Level FlightAware ADS-B
Thu 05:48:06 PM 48.0310 -122.2880 178° South 147 169 2,500 -655 Descending FlightAware ADS-B
Thu 05:48:38 PM 48.0100 -122.2880 180° South 140 161 2,100 -750 Descending FlightAware ADS-B
Thu 05:49:18 PM 47.9840 -122.2870 179° South 134 154 1,600 -750 Descending FlightAware ADS-B
Thu 05:49:58 PM 47.9600 -122.2870 180° South 134 154 1,100 -727 Descending FlightAware ADS-B
Thu 05:50:24 PM 47.9440 -122.2860 178° South 135 155 800 -750 Descending FlightAware ADS-B
Thu 05:50:54 PM 47.9260 -122.2860 180° South 138 159 400 -436 Descending FlightAware ADS-B
Thu 05:51:19 PM 47.9120 -122.2860 180° South 138 159 400  Level FlightAware ADS-B
Thu 05:58:00 PM 47.9070 -122.2816 180° South  Level Estimated
Thu 05:59:00 PM 47.9070 -122.2816 180° South  Level Estimated

Login

Don't have an account? Register now (free) for customized features, flight alerts, and more!